Time;durP1;ratioP1;P1;durP2;ratioP2;P2;SDS_P1;SDS_P2;PMS_P1;PMS_P2;Temp;Humidity;BMP_temperature;BMP_pressure;BME280_temperature;BME280_humidity;BME280_pressure;Samples;Min_cycle;Max_cycle;Signal;HPM_P1;HPM_P2
2022/04/27 00:00:19;;;;;;;1.60;0.90;;;23.10;43.50;;;;;;4992645;28;20041;-62
2022/04/27 00:02:45;;;;;;;1.35;0.93;;;23.10;43.50;;;;;;4992655;28;20042;-62
2022/04/27 00:05:11;;;;;;;2.15;1.10;;;23.10;43.50;;;;;;4993779;28;20029;-64
2022/04/27 00:07:36;;;;;;;0.85;0.80;;;23.10;43.40;;;;;;4994756;28;20042;-66
2022/04/27 00:10:05;;;;;;;1.45;0.70;;;23.10;43.50;;;;;;4996574;28;20061;-65
2022/04/27 00:12:30;;;;;;;1.75;1.00;;;23.00;43.40;;;;;;4994375;28;21115;-65
2022/04/27 00:14:56;;;;;;;1.27;1.00;;;23.00;43.50;;;;;;4997061;28;20030;-64
2022/04/27 00:17:22;;;;;;;1.50;1.00;;;23.00;43.40;;;;;;4994254;28;20064;-62
2022/04/27 00:19:47;;;;;;;1.33;0.85;;;23.00;43.50;;;;;;4996918;28;20030;-65
2022/04/27 00:22:14;;;;;;;1.20;0.80;;;23.00;43.40;;;;;;4995711;28;20494;-61
2022/04/27 00:24:40;;;;;;;1.17;0.90;;;23.00;43.40;;;;;;4998070;28;20130;-62
2022/04/27 00:27:06;;;;;;;1.70;1.00;;;23.00;43.40;;;;;;4996684;28;20029;-64
2022/04/27 00:29:32;;;;;;;1.40;1.08;;;22.90;43.40;;;;;;4997185;28;20493;-62
2022/04/27 00:31:57;;;;;;;1.25;0.90;;;22.90;43.40;;;;;;4995178;28;20119;-61
2022/04/27 00:34:23;;;;;;;1.45;0.90;;;22.90;43.40;;;;;;4994625;28;20065;-62
2022/04/27 00:36:49;;;;;;;1.40;0.90;;;22.90;43.40;;;;;;4995374;28;20141;-62
2022/04/27 00:39:16;;;;;;;1.10;0.90;;;22.90;43.30;;;;;;4994402;28;20030;-63
2022/04/27 00:41:58;;;;;;;1.30;1.00;;;22.90;43.40;;;;;;4993274;28;20030;-60
2022/04/27 00:44:26;;;;;;;1.70;1.00;;;22.90;43.40;;;;;;4994659;28;20140;-62
2022/04/27 00:46:52;;;;;;;1.83;0.88;;;22.90;43.40;;;;;;4985502;28;20071;-62
2022/04/27 00:49:18;;;;;;;1.40;0.82;;;22.90;43.30;;;;;;4992809;28;20030;-62
2022/04/27 00:51:44;;;;;;;1.77;0.90;;;22.90;43.40;;;;;;4992066;28;20038;-62
2022/04/27 00:54:10;;;;;;;1.42;1.00;;;22.90;43.40;;;;;;4996033;28;20382;-62
2022/04/27 00:56:37;;;;;;;1.33;0.90;;;22.80;43.30;;;;;;4996003;28;20140;-61
2022/04/27 00:59:02;;;;;;;1.88;1.00;;;22.80;43.30;;;;;;4992248;28;20038;-62
2022/04/27 01:01:28;;;;;;;1.27;0.90;;;22.80;43.40;;;;;;4993906;28;20065;-61
2022/04/27 01:03:54;;;;;;;1.42;1.00;;;22.80;43.30;;;;;;4996394;28;20219;-63
2022/04/27 01:06:21;;;;;;;1.35;0.98;;;22.80;43.30;;;;;;4991750;28;20510;-61
2022/04/27 01:08:47;;;;;;;1.92;0.90;;;22.80;43.30;;;;;;4995256;28;20159;-60
2022/04/27 01:11:14;;;;;;;1.15;0.90;;;22.80;43.30;;;;;;4994338;28;20030;-64
2022/04/27 01:13:39;;;;;;;1.20;0.90;;;22.80;43.30;;;;;;4992265;28;20026;-63
2022/04/27 01:16:06;;;;;;;1.88;0.77;;;22.80;43.30;;;;;;4994329;28;20694;-65
2022/04/27 01:18:31;;;;;;;1.38;0.90;;;22.80;43.30;;;;;;4994294;28;20347;-65
2022/04/27 01:20:57;;;;;;;1.35;0.90;;;22.70;43.30;;;;;;4995525;28;20044;-65
2022/04/27 01:23:23;;;;;;;2.05;0.90;;;22.70;43.30;;;;;;4992473;28;20065;-61
2022/04/27 01:26:05;;;;;;;1.55;0.90;;;22.80;43.30;;;;;;4992626;28;20048;-61
2022/04/27 01:28:32;;;;;;;1.58;0.93;;;22.70;43.30;;;;;;4994104;28;20098;-62
2022/04/27 01:31:00;;;;;;;1.40;0.90;;;22.70;43.30;;;;;;4992220;28;20036;-63
2022/04/27 01:33:27;;;;;;;1.20;0.90;;;22.70;43.30;;;;;;4991976;28;20041;-61
2022/04/27 01:35:53;;;;;;;1.55;1.20;;;22.70;43.30;;;;;;4989934;28;20093;-64
2022/04/27 01:38:20;;;;;;;1.50;0.82;;;22.70;43.30;;;;;;4990156;28;20072;-65
2022/04/27 01:40:46;;;;;;;1.35;0.90;;;22.70;43.30;;;;;;4994145;28;20058;-61
2022/04/27 01:43:15;;;;;;;1.23;0.90;;;22.70;43.30;;;;;;4991200;28;20091;-60
2022/04/27 01:45:42;;;;;;;3.33;1.00;;;22.70;43.30;;;;;;4990344;28;20034;-63
2022/04/27 01:48:09;;;;;;;1.77;1.00;;;22.60;43.30;;;;;;4989296;28;20030;-64
2022/04/27 01:50:34;;;;;;;1.38;0.90;;;22.60;43.20;;;;;;4991260;28;20454;-63
2022/04/27 01:55:44;;;;;;;1.00;0.90;;;22.60;43.30;;;;;;4987142;28;20056;-62
2022/04/27 01:58:10;;;;;;;1.30;0.82;;;22.60;43.30;;;;;;4987547;28;20339;-63
2022/04/27 02:00:35;;;;;;;1.45;0.85;;;22.60;43.30;;;;;;4987182;28;20042;-61
2022/04/27 02:03:01;;;;;;;1.50;0.88;;;22.60;43.30;;;;;;4992454;28;20382;-61
2022/04/27 02:05:27;;;;;;;1.10;0.90;;;22.60;43.30;;;;;;4988933;28;20030;-64
2022/04/27 02:07:52;;;;;;;1.35;0.95;;;22.50;43.20;;;;;;4993921;28;20022;-60
2022/04/27 02:10:18;;;;;;;1.30;0.90;;;22.50;43.20;;;;;;4994145;28;20109;-61
2022/04/27 02:12:44;;;;;;;2.28;1.10;;;22.60;43.30;;;;;;4993085;28;20816;-65
2022/04/27 02:15:10;;;;;;;1.92;1.35;;;22.50;43.80;;;;;;4991391;28;20403;-65
2022/04/27 02:17:36;;;;;;;1.40;1.10;;;22.50;43.30;;;;;;4993837;28;20062;-62
2022/04/27 02:20:02;;;;;;;1.20;0.90;;;22.50;43.30;;;;;;4994817;28;20042;-61
2022/04/27 02:22:27;;;;;;;1.65;1.00;;;22.50;43.30;;;;;;4993793;28;20660;-60
2022/04/27 02:24:53;;;;;;;0.90;0.80;;;22.50;43.30;;;;;;4991175;28;20038;-61
2022/04/27 02:27:20;;;;;;;1.70;0.88;;;22.50;43.30;;;;;;4994525;28;20030;-61
2022/04/27 02:29:46;;;;;;;1.30;0.80;;;22.50;43.30;;;;;;4994493;28;20374;-62
2022/04/27 02:32:12;;;;;;;1.05;0.90;;;22.50;43.30;;;;;;4990888;28;20057;-62
2022/04/27 02:34:38;;;;;;;1.15;0.80;;;22.50;43.30;;;;;;4992331;28;20471;-62
2022/04/27 02:37:05;;;;;;;0.90;0.80;;;22.50;43.40;;;;;;4995918;28;20026;-65
2022/04/27 02:39:31;;;;;;;1.25;0.90;;;22.40;43.30;;;;;;4992211;28;20041;-61
2022/04/27 02:41:57;;;;;;;1.80;0.90;;;22.40;43.30;;;;;;4993027;28;20041;-62
2022/04/27 02:44:22;;;;;;;1.33;0.88;;;22.40;43.30;;;;;;4991644;28;20025;-62
2022/04/27 02:46:48;;;;;;;1.17;0.85;;;22.40;43.30;;;;;;4987170;28;20177;-62
2022/04/27 02:51:58;;;;;;;1.25;0.80;;;22.40;43.30;;;;;;4990929;28;20113;-62
2022/04/27 02:54:24;;;;;;;1.40;0.80;;;22.40;43.30;;;;;;4994124;28;20537;-61
2022/04/27 02:56:50;;;;;;;1.38;1.10;;;22.40;43.30;;;;;;4990027;28;20134;-61
2022/04/27 02:59:16;;;;;;;1.88;0.80;;;22.40;43.30;;;;;;4991281;28;20056;-63
2022/04/27 03:01:42;;;;;;;2.40;0.85;;;22.40;43.30;;;;;;4991598;28;20045;-61
2022/04/27 03:04:09;;;;;;;1.55;0.90;;;22.40;43.30;;;;;;4988413;28;20030;-62
2022/04/27 03:06:35;;;;;;;1.48;0.98;;;22.40;43.40;;;;;;4993266;28;20053;-64
2022/04/27 03:09:01;;;;;;;1.15;0.80;;;22.40;43.30;;;;;;4994231;28;20108;-63
2022/04/27 03:11:27;;;;;;;1.02;0.80;;;22.30;43.30;;;;;;4990336;28;20022;-61
2022/04/27 03:13:53;;;;;;;1.10;0.90;;;22.30;43.30;;;;;;4994150;28;20033;-60
2022/04/27 03:16:18;;;;;;;1.38;0.80;;;22.30;43.30;;;;;;4989493;28;20033;-61
2022/04/27 03:18:44;;;;;;;1.38;1.00;;;22.30;43.40;;;;;;4990887;28;20430;-65
2022/04/27 03:21:11;;;;;;;1.13;0.80;;;22.30;43.30;;;;;;4994517;28;20065;-60
2022/04/27 03:23:36;;;;;;;1.30;0.88;;;22.30;43.30;;;;;;4994632;28;20056;-61
2022/04/27 03:26:02;;;;;;;1.00;0.80;;;22.30;43.40;;;;;;4995070;28;20570;-65
2022/04/27 03:28:28;;;;;;;1.30;0.80;;;22.30;43.40;;;;;;4995254;28;20056;-62
2022/04/27 03:30:54;;;;;;;0.98;0.80;;;22.30;43.40;;;;;;4993917;28;20534;-61
2022/04/27 03:33:20;;;;;;;1.10;0.90;;;22.30;43.40;;;;;;4990477;28;20435;-62
2022/04/27 03:35:46;;;;;;;1.00;0.70;;;22.30;43.40;;;;;;4997906;28;20094;-60
2022/04/27 03:38:13;;;;;;;0.88;0.70;;;22.30;43.40;;;;;;4993642;28;20034;-61
2022/04/27 03:40:41;;;;;;;1.15;0.73;;;22.30;43.30;;;;;;4993062;28;20029;-66
2022/04/27 03:43:07;;;;;;;1.05;0.80;;;22.20;43.30;;;;;;4995723;28;20129;-63
2022/04/27 03:45:33;;;;;;;1.08;0.80;;;22.20;43.30;;;;;;4992755;28;20476;-62
2022/04/27 03:47:59;;;;;;;1.02;0.85;;;22.30;43.40;;;;;;4993821;28;20029;-64
2022/04/27 03:50:25;;;;;;;0.77;0.68;;;22.20;43.30;;;;;;4997357;28;20120;-60
2022/04/27 03:52:51;;;;;;;1.17;0.70;;;22.20;43.40;;;;;;4992072;28;20068;-60
2022/04/27 03:55:17;;;;;;;0.88;0.70;;;22.20;43.30;;;;;;4992537;28;20065;-61
2022/04/27 03:57:43;;;;;;;0.95;0.80;;;22.20;43.40;;;;;;4994053;28;20064;-62
2022/04/27 04:00:09;;;;;;;0.90;0.70;;;22.20;43.30;;;;;;4991443;28;20061;-62
2022/04/27 04:02:37;;;;;;;0.98;0.85;;;22.20;43.40;;;;;;4990257;28;20033;-61
2022/04/27 04:05:03;;;;;;;0.80;0.80;;;22.20;43.30;;;;;;4996227;28;20060;-65
2022/04/27 04:07:29;;;;;;;1.20;0.80;;;22.20;43.30;;;;;;4993003;28;20026;-63
2022/04/27 04:09:55;;;;;;;1.02;0.80;;;22.20;43.30;;;;;;4994381;28;20037;-59
2022/04/27 04:12:21;;;;;;;1.10;0.73;;;22.20;43.30;;;;;;4992731;28;20621;-61
2022/04/27 04:14:46;;;;;;;0.95;0.70;;;22.20;43.30;;;;;;4994854;28;20034;-59
2022/04/27 04:17:12;;;;;;;1.38;0.80;;;22.20;43.30;;;;;;4992945;28;20040;-62
2022/04/27 04:19:39;;;;;;;1.15;0.80;;;22.20;43.30;;;;;;4996277;28;20038;-61
2022/04/27 04:22:06;;;;;;;0.70;0.70;;;22.20;43.30;;;;;;4994748;28;20124;-60
2022/04/27 04:24:32;;;;;;;0.82;0.70;;;22.20;43.40;;;;;;4996778;28;20034;-62
2022/04/27 04:29:42;;;;;;;0.80;0.77;;;22.20;43.40;;;;;;4993916;28;20053;-59
2022/04/27 04:32:07;;;;;;;1.23;0.80;;;22.20;43.30;;;;;;4993263;28;20038;-63
2022/04/27 04:34:33;;;;;;;1.13;0.90;;;22.10;43.30;;;;;;4993805;28;20044;-59
2022/04/27 04:36:59;;;;;;;1.02;0.80;;;22.10;43.30;;;;;;4995603;28;20032;-60
2022/04/27 04:39:24;;;;;;;0.82;0.70;;;22.10;43.30;;;;;;4994340;28;20053;-60
2022/04/27 04:41:50;;;;;;;0.80;0.70;;;22.10;43.30;;;;;;4992358;28;20130;-60
2022/04/27 04:44:15;;;;;;;1.00;0.80;;;22.10;43.30;;;;;;4991307;28;20114;-61
2022/04/27 04:46:41;;;;;;;0.80;0.70;;;22.10;43.30;;;;;;4985579;28;20616;-61
2022/04/27 04:49:07;;;;;;;0.70;0.70;;;22.10;43.30;;;;;;4988012;28;20088;-62
2022/04/27 04:51:33;;;;;;;0.68;0.68;;;22.10;43.30;;;;;;4982144;28;20057;-62
2022/04/27 04:53:59;;;;;;;1.02;0.80;;;22.10;43.30;;;;;;4985796;28;20028;-61
2022/04/27 04:56:24;;;;;;;1.35;0.80;;;22.10;43.30;;;;;;4985902;28;20772;-65
2022/04/27 04:58:50;;;;;;;1.23;0.77;;;22.10;43.30;;;;;;4986450;28;20030;-59
2022/04/27 05:01:16;;;;;;;1.13;0.80;;;22.10;43.20;;;;;;4985450;28;20582;-61
2022/04/27 05:03:41;;;;;;;0.98;0.70;;;22.10;43.20;;;;;;4986028;28;20038;-61
2022/04/27 05:06:07;;;;;;;1.02;0.68;;;22.10;43.20;;;;;;4986809;28;20030;-61
2022/04/27 05:08:32;;;;;;;1.00;0.80;;;22.10;43.20;;;;;;4983296;28;20048;-61
2022/04/27 05:10:58;;;;;;;1.00;0.80;;;22.10;43.10;;;;;;4982493;28;20041;-62
2022/04/27 05:13:24;;;;;;;0.80;0.70;;;22.10;43.10;;;;;;4986570;28;21156;-64
2022/04/27 05:15:50;;;;;;;1.15;0.80;;;22.10;43.10;;;;;;4989629;28;20763;-61
2022/04/27 05:18:19;;;;;;;0.88;0.63;;;22.10;43.10;;;;;;4989271;28;20113;-65
2022/04/27 05:20:45;;;;;;;1.30;0.80;;;22.10;43.60;;;;;;4989164;28;20029;-61
2022/04/27 05:23:13;;;;;;;1.17;0.80;;;22.10;43.20;;;;;;4992139;28;20697;-62
2022/04/27 05:25:40;;;;;;;1.07;0.70;;;22.10;43.20;;;;;;4990109;28;20140;-61
2022/04/27 05:28:06;;;;;;;2.05;0.70;;;22.10;43.30;;;;;;4990503;28;20699;-64
2022/04/27 05:33:17;;;;;;;1.00;0.70;;;22.10;43.30;;;;;;4984143;28;20127;-61
2022/04/27 05:35:44;;;;;;;1.30;0.80;;;22.10;43.30;;;;;;4990700;28;20047;-61
2022/04/27 05:38:10;;;;;;;4.13;0.77;;;22.00;43.40;;;;;;4985854;28;20112;-60
2022/04/27 05:40:39;;;;;;;0.63;0.63;;;22.00;43.40;;;;;;4991528;28;20034;-60
2022/04/27 05:43:06;;;;;;;0.85;0.70;;;22.00;43.40;;;;;;4991007;28;20030;-62
2022/04/27 05:45:32;;;;;;;0.77;0.70;;;22.00;43.50;;;;;;4988887;28;20385;-62
2022/04/27 05:47:58;;;;;;;0.75;0.63;;;22.00;43.50;;;;;;4989826;28;20098;-62
2022/04/27 05:50:24;;;;;;;0.82;0.77;;;22.00;43.50;;;;;;4990718;28;20026;-63
2022/04/27 05:52:52;;;;;;;0.77;0.75;;;22.00;43.50;;;;;;4993480;28;20497;-60
2022/04/27 05:55:19;;;;;;;1.25;0.75;;;22.00;43.50;;;;;;4993084;28;20103;-62
2022/04/27 05:57:45;;;;;;;0.95;0.70;;;22.00;43.50;;;;;;4992398;28;20168;-63
2022/04/27 06:00:12;;;;;;;0.70;0.60;;;22.00;43.40;;;;;;4990068;28;20502;-63
2022/04/27 06:02:38;;;;;;;1.23;0.70;;;22.00;43.50;;;;;;4988359;28;20176;-61
2022/04/27 06:05:05;;;;;;;1.45;0.73;;;22.00;43.50;;;;;;4991697;28;20139;-63
2022/04/27 06:07:31;;;;;;;1.48;0.80;;;22.00;43.50;;;;;;4993629;28;20033;-64
2022/04/27 06:09:56;;;;;;;1.38;0.70;;;22.00;43.50;;;;;;4992781;28;20037;-62
2022/04/27 06:12:30;;;;;;;2.55;0.75;;;22.00;43.50;;;;;;4994374;28;20120;-63
2022/04/27 06:14:56;;;;;;;1.98;0.80;;;22.00;43.50;;;;;;4992378;28;20041;-60
2022/04/27 06:17:22;;;;;;;1.60;0.80;;;22.00;43.50;;;;;;4991715;28;20053;-62
2022/04/27 06:19:47;;;;;;;1.85;0.88;;;22.00;43.50;;;;;;4993625;28;20045;-60
2022/04/27 06:22:13;;;;;;;1.23;0.70;;;22.00;43.50;;;;;;4992633;28;20061;-59
2022/04/27 06:24:39;;;;;;;1.48;0.85;;;22.00;43.50;;;;;;4994243;28;20029;-63
2022/04/27 06:27:05;;;;;;;0.63;0.60;;;21.90;43.50;;;;;;4993076;28;20588;-60
2022/04/27 06:29:30;;;;;;;1.48;0.90;;;22.00;43.50;;;;;;4991581;28;20867;-61
2022/04/27 06:31:56;;;;;;;1.42;0.80;;;22.00;43.50;;;;;;4991517;28;20137;-60
2022/04/27 06:34:21;;;;;;;0.73;0.63;;;22.00;43.60;;;;;;4990151;28;20025;-59
2022/04/27 06:36:47;;;;;;;1.10;0.70;;;21.90;43.50;;;;;;4994098;28;20437;-62
2022/04/27 06:39:14;;;;;;;1.05;0.80;;;21.90;43.50;;;;;;4993504;28;20385;-60
2022/04/27 06:41:41;;;;;;;2.08;0.80;;;21.90;43.50;;;;;;4992180;28;20091;-62
2022/04/27 06:44:07;;;;;;;1.58;0.80;;;21.90;43.50;;;;;;4992906;28;20038;-63
2022/04/27 06:46:32;;;;;;;1.13;0.80;;;21.90;43.50;;;;;;4988996;28;20068;-61
2022/04/27 06:48:58;;;;;;;2.40;0.70;;;21.90;43.50;;;;;;4991693;28;20125;-62
2022/04/27 06:51:23;;;;;;;1.35;0.70;;;21.90;43.50;;;;;;4990856;28;20030;-61
2022/04/27 06:53:49;;;;;;;1.55;0.90;;;21.90;43.50;;;;;;4992544;28;20569;-62
2022/04/27 06:56:16;;;;;;;1.00;0.73;;;21.90;43.60;;;;;;4992499;28;20025;-61
2022/04/27 06:58:42;;;;;;;1.50;0.80;;;21.90;44.10;;;;;;4991572;28;20040;-64
2022/04/27 07:01:09;;;;;;;1.58;0.80;;;21.90;43.50;;;;;;4988787;28;20146;-63
2022/04/27 07:03:36;;;;;;;2.53;0.90;;;21.90;43.50;;;;;;4988386;28;20073;-60
2022/04/27 07:06:02;;;;;;;1.67;0.73;;;21.90;43.50;;;;;;4990267;28;20037;-62
2022/04/27 07:08:31;;;;;;;2.60;0.98;;;21.90;43.50;;;;;;4991688;28;20394;-60
2022/04/27 07:10:57;;;;;;;0.95;0.70;;;21.90;43.50;;;;;;4991573;28;20083;-62
2022/04/27 07:13:23;;;;;;;1.17;0.70;;;21.90;43.50;;;;;;4990299;28;20038;-62
2022/04/27 07:15:50;;;;;;;1.90;1.02;;;21.90;43.50;;;;;;4989749;28;20112;-61
2022/04/27 07:18:15;;;;;;;0.90;0.70;;;21.90;43.50;;;;;;4987715;28;20451;-65
2022/04/27 07:20:41;;;;;;;1.30;0.70;;;21.90;43.50;;;;;;4993536;28;20036;-64
2022/04/27 07:23:06;;;;;;;1.70;0.85;;;21.90;43.50;;;;;;4991301;28;20041;-62
2022/04/27 07:25:32;;;;;;;1.35;0.80;;;21.90;43.60;;;;;;4991954;28;20113;-60
2022/04/27 07:27:58;;;;;;;1.45;0.80;;;21.80;43.50;;;;;;4991156;28;21639;-64
2022/04/27 07:30:24;;;;;;;1.33;1.00;;;21.90;43.60;;;;;;4991646;28;20693;-62
2022/04/27 07:32:51;;;;;;;1.42;0.80;;;21.90;44.10;;;;;;4985121;28;20033;-60
2022/04/27 07:35:18;;;;;;;2.03;0.80;;;21.80;43.50;;;;;;4991267;28;20147;-64
2022/04/27 07:37:44;;;;;;;1.30;0.80;;;21.80;43.50;;;;;;4990102;28;20045;-62
2022/04/27 07:40:11;;;;;;;1.42;1.00;;;21.90;43.60;;;;;;4991605;28;20117;-60
2022/04/27 07:42:37;;;;;;;0.80;0.70;;;21.80;43.50;;;;;;4991187;28;20057;-62
2022/04/27 07:45:07;;;;;;;1.40;0.90;;;21.80;43.60;;;;;;4989982;28;20108;-62
2022/04/27 07:47:46;;;;;;;0.75;0.65;;;21.80;43.50;;;;;;4988647;28;20030;-61
2022/04/27 07:50:14;;;;;;;2.03;0.80;;;21.80;43.60;;;;;;4989710;28;20405;-59
2022/04/27 07:52:41;;;;;;;0.80;0.70;;;21.80;43.60;;;;;;4990000;28;20458;-62
2022/04/27 07:55:07;;;;;;;1.17;0.80;;;21.80;43.60;;;;;;4990894;28;20033;-62
2022/04/27 07:57:34;;;;;;;1.42;0.85;;;21.80;43.60;;;;;;4991780;28;20064;-60
2022/04/27 08:00:02;;;;;;;1.42;0.88;;;21.80;43.60;;;;;;4990449;28;20977;-64
2022/04/27 08:02:28;;;;;;;1.00;0.70;;;21.80;43.60;;;;;;4987817;28;20143;-62
2022/04/27 08:04:54;;;;;;;1.52;0.80;;;21.80;43.70;;;;;;4987214;28;20113;-62
2022/04/27 08:07:19;;;;;;;0.90;0.70;;;21.80;43.60;;;;;;4993171;28;20034;-62
2022/04/27 08:09:45;;;;;;;1.33;0.63;;;21.80;43.70;;;;;;4995079;28;20079;-60
2022/04/27 08:12:10;;;;;;;1.30;0.80;;;21.80;43.70;;;;;;4997069;28;20105;-61
2022/04/27 08:14:37;;;;;;;1.23;0.70;;;21.80;43.70;;;;;;4996437;28;20037;-61
2022/04/27 08:17:04;;;;;;;1.38;0.70;;;21.80;43.70;;;;;;4995450;28;20038;-63
2022/04/27 08:19:29;;;;;;;1.25;0.73;;;21.80;43.70;;;;;;4992393;28;20037;-60
2022/04/27 08:21:55;;;;;;;1.88;0.80;;;21.80;43.70;;;;;;4996065;28;20030;-63
2022/04/27 08:24:22;;;;;;;1.67;0.90;;;21.70;43.60;;;;;;4995603;28;20030;-60
2022/04/27 08:26:48;;;;;;;1.75;0.90;;;21.80;43.70;;;;;;4994659;28;20482;-64
2022/04/27 08:29:14;;;;;;;1.20;0.70;;;21.80;43.70;;;;;;4994692;28;20030;-63
2022/04/27 08:31:40;;;;;;;1.42;0.90;;;21.80;43.70;;;;;;4994910;28;20106;-61
2022/04/27 08:34:06;;;;;;;1.00;0.75;;;21.80;43.70;;;;;;4993330;28;20035;-64
2022/04/27 08:36:33;;;;;;;0.70;0.50;;;21.70;43.70;;;;;;4994076;28;20773;-61
2022/04/27 08:39:00;;;;;;;1.73;0.70;;;21.70;43.70;;;;;;4993745;28;20044;-64
2022/04/27 08:41:28;;;;;;;1.08;0.60;;;21.80;43.70;;;;;;4993459;28;20393;-62
2022/04/27 08:43:54;;;;;;;0.93;0.73;;;21.70;43.70;;;;;;4993202;28;20092;-61
2022/04/27 08:46:20;;;;;;;1.90;0.80;;;21.70;43.70;;;;;;4993287;28;20042;-61
2022/04/27 08:48:50;;;;;;;1.13;0.70;;;21.70;43.70;;;;;;4991035;28;20083;-62
2022/04/27 08:51:16;;;;;;;1.17;0.63;;;21.70;43.80;;;;;;4992635;28;20033;-62
2022/04/27 08:53:43;;;;;;;0.93;0.70;;;21.70;43.70;;;;;;4992895;28;20023;-62
2022/04/27 08:56:09;;;;;;;1.55;0.77;;;21.70;43.70;;;;;;4993357;28;20026;-61
2022/04/27 08:58:34;;;;;;;0.68;0.68;;;21.70;43.70;;;;;;4992183;28;20092;-61
2022/04/27 09:01:00;;;;;;;1.10;0.80;;;21.70;43.70;;;;;;4989911;28;20131;-61
2022/04/27 09:03:37;;;;;;;1.23;0.70;;;21.70;43.70;;;;;;4992196;28;20038;-62
2022/04/27 09:06:04;;;;;;;0.90;0.75;;;21.70;43.70;;;;;;4990116;28;20038;-62
2022/04/27 09:08:46;;;;;;;1.08;0.65;;;21.70;43.60;;;;;;4994660;28;20037;-61
2022/04/27 09:11:26;;;;;;;0.70;0.60;;;21.70;43.70;;;;;;4989365;28;20117;-61
2022/04/27 09:14:00;;;;;;;1.30;0.85;;;21.70;43.70;;;;;;4994743;28;20033;-60
2022/04/27 09:22:27;;;;;;;0.80;0.60;;;21.70;43.60;;;;;;4991296;28;20072;-62
2022/04/27 09:24:55;;;;;;;0.98;0.73;;;21.70;43.70;;;;;;4993310;28;20034;-60
2022/04/27 09:27:22;;;;;;;0.90;0.57;;;21.70;43.70;;;;;;4994212;28;20046;-64
2022/04/27 09:30:02;;;;;;;1.20;0.70;;;21.70;43.70;;;;;;4993369;28;20505;-60
2022/04/27 09:32:27;;;;;;;;;;;21.70;43.60;;;;;;4991306;28;20046;-62
2022/04/27 09:34:55;;;;;;;1.17;0.73;;;21.70;43.70;;;;;;4992499;28;19936;-61
2022/04/27 09:37:24;;;;;;;1.60;0.80;;;21.70;43.70;;;;;;4992300;28;20026;-61
2022/04/27 09:40:19;;;;;;;0.93;0.70;;;21.70;44.20;;;;;;4993851;28;20046;-64
2022/04/27 09:42:46;;;;;;;0.98;0.70;;;21.70;43.60;;;;;;4978636;28;20088;-63
2022/04/27 09:45:25;;;;;;;1.00;0.80;;;21.70;43.60;;;;;;4992805;28;20501;-63
2022/04/27 09:48:04;;;;;;;1.50;0.80;;;21.70;43.60;;;;;;4991488;28;20410;-60
2022/04/27 09:50:51;;;;;;;1.05;0.65;;;21.70;43.60;;;;;;4992522;28;20112;-61
2022/04/27 09:53:18;;;;;;;1.35;0.80;;;21.70;43.60;;;;;;4991588;28;20030;-61
2022/04/27 09:55:51;;;;;;;0.98;0.73;;;21.70;43.60;;;;;;4991799;28;20091;-63
2022/04/27 09:58:19;;;;;;;2.63;1.08;;;21.70;43.60;;;;;;4992413;28;20497;-61
2022/04/27 10:00:47;;;;;;;1.25;0.80;;;21.70;43.60;;;;;;4990833;28;20499;-61
2022/04/27 10:03:18;;;;;;;1.25;0.80;;;21.70;43.60;;;;;;4992829;28;20057;-61
2022/04/27 10:05:44;;;;;;;1.20;0.70;;;21.70;43.60;;;;;;4989550;28;20037;-60
2022/04/27 10:08:11;;;;;;;1.10;0.70;;;21.70;43.60;;;;;;4993573;28;20060;-61
2022/04/27 10:10:41;;;;;;;0.70;0.70;;;21.70;43.60;;;;;;4993627;28;20034;-61
2022/04/27 10:13:11;;;;;;;1.15;0.75;;;21.70;43.60;;;;;;4992003;28;20168;-61
2022/04/27 10:15:42;;;;;;;0.98;0.70;;;21.70;43.60;;;;;;4990738;28;20474;-63
2022/04/27 10:18:15;;;;;;;1.10;0.70;;;21.70;43.60;;;;;;4991080;28;20044;-63
2022/04/27 10:20:41;;;;;;;1.00;0.70;;;21.70;43.70;;;;;;4993452;28;20124;-62
2022/04/27 10:23:22;;;;;;;1.08;0.70;;;21.70;43.60;;;;;;4991898;28;20141;-61
2022/04/27 10:26:27;;;;;;;0.98;0.70;;;21.70;43.70;;;;;;4991658;28;20029;-62
2022/04/27 10:28:59;;;;;;;1.20;0.70;;;21.70;43.70;;;;;;4985161;28;20096;-61
2022/04/27 10:31:44;;;;;;;0.70;0.60;;;21.70;43.70;;;;;;4988918;28;20125;-61
2022/04/27 10:34:22;;;;;;;1.02;0.63;;;21.70;43.70;;;;;;4987976;28;20044;-62
2022/04/27 10:36:52;;;;;;;0.70;0.60;;;21.70;43.70;;;;;;4988256;28;20029;-60
2022/04/27 10:39:22;;;;;;;1.27;0.70;;;21.70;43.70;;;;;;4991683;28;20030;-61
2022/04/27 10:41:55;;;;;;;1.38;0.80;;;21.70;43.70;;;;;;4997136;28;20105;-62
2022/04/27 10:44:41;;;;;;;1.35;0.80;;;21.70;43.70;;;;;;4995579;28;20061;-63
2022/04/27 10:47:33;;;;;;;1.00;0.73;;;21.70;43.80;;;;;;4994499;28;20034;-60
2022/04/27 10:50:13;;;;;;;1.17;0.70;;;21.70;43.80;;;;;;4994806;28;20126;-61
2022/04/27 10:52:50;;;;;;;;;;;21.70;43.80;;;;;;4994387;28;20113;-62
2022/04/27 10:55:34;;;;;;;0.75;0.60;;;21.70;43.80;;;;;;4993053;28;19948;-63
2022/04/27 10:58:14;;;;;;;1.15;0.70;;;21.70;43.80;;;;;;4995706;28;20080;-61
2022/04/27 11:01:01;;;;;;;0.80;0.70;;;21.70;43.80;;;;;;4990208;28;20049;-61
2022/04/27 11:03:27;;;;;;;0.70;0.60;;;21.70;43.80;;;;;;4991516;28;20127;-60
2022/04/27 11:05:56;;;;;;;0.73;0.60;;;21.70;43.80;;;;;;4993474;28;20025;-61
2022/04/27 11:08:35;;;;;;;1.08;0.70;;;21.70;43.80;;;;;;4991779;28;20019;-63
2022/04/27 11:11:07;;;;;;;1.00;0.80;;;21.70;43.90;;;;;;4991407;28;20026;-62
2022/04/27 11:13:34;;;;;;;2.28;0.70;;;21.70;43.90;;;;;;4991744;28;20034;-61
2022/04/27 11:16:10;;;;;;;1.23;0.70;;;21.70;43.90;;;;;;4988688;28;20038;-61
2022/04/27 11:18:57;;;;;;;1.05;0.70;;;21.70;43.90;;;;;;4991580;28;20034;-62
2022/04/27 11:21:26;;;;;;;0.90;0.70;;;21.70;43.90;;;;;;4991062;28;20026;-60
2022/04/27 11:23:53;;;;;;;0.82;0.70;;;21.70;43.90;;;;;;4993294;28;20137;-60
2022/04/27 11:26:19;;;;;;;0.98;0.73;;;21.70;43.90;;;;;;4989801;28;20129;-61
2022/04/27 11:28:46;;;;;;;1.00;0.70;;;21.70;44.00;;;;;;4991731;28;20113;-61
2022/04/27 11:31:13;;;;;;;0.60;0.60;;;21.70;44.00;;;;;;4988344;28;20129;-60
2022/04/27 11:33:40;;;;;;;1.00;0.63;;;21.70;44.00;;;;;;4990006;28;20076;-61
2022/04/27 11:36:26;;;;;;;1.42;0.80;;;21.70;43.90;;;;;;4993999;28;20107;-62
2022/04/27 11:38:53;;;;;;;1.35;0.90;;;21.70;44.00;;;;;;4993471;28;20030;-59
2022/04/27 11:41:20;;;;;;;1.02;0.70;;;21.70;43.90;;;;;;4995318;28;20025;-61
2022/04/27 11:43:48;;;;;;;0.95;0.70;;;21.70;43.90;;;;;;4989148;28;20128;-63
2022/04/27 11:46:14;;;;;;;1.20;0.70;;;21.70;43.90;;;;;;4995140;28;20030;-61
2022/04/27 11:48:45;;;;;;;1.00;0.70;;;21.70;43.90;;;;;;4994517;28;20041;-61
2022/04/27 11:51:11;;;;;;;0.88;0.80;;;21.70;43.90;;;;;;5025800;28;20030;-61
2022/04/27 11:53:48;;;;;;;0.82;0.70;;;21.70;43.90;;;;;;4995064;28;20034;-60
2022/04/27 11:56:15;;;;;;;1.65;1.00;;;21.70;43.90;;;;;;4996454;28;20462;-61
2022/04/27 11:58:41;;;;;;;1.00;0.55;;;21.70;43.90;;;;;;4995659;28;20088;-61
2022/04/27 12:01:08;;;;;;;0.75;0.70;;;21.70;43.90;;;;;;4989088;28;20164;-61
2022/04/27 12:03:43;;;;;;;0.98;0.80;;;21.70;43.90;;;;;;4992230;28;20213;-61
2022/04/27 12:06:09;;;;;;;0.95;0.60;;;21.80;44.00;;;;;;4993190;28;20121;-60
2022/04/27 12:08:41;;;;;;;1.05;0.70;;;21.80;43.90;;;;;;4992048;28;20029;-61
2022/04/27 12:11:06;;;;;;;0.68;0.60;;;21.80;43.90;;;;;;4996720;28;20113;-61
2022/04/27 12:13:34;;;;;;;1.13;0.80;;;21.80;43.90;;;;;;4997367;28;20132;-63
2022/04/27 12:16:00;;;;;;;0.80;0.60;;;21.80;43.90;;;;;;4995314;28;20033;-62
2022/04/27 12:18:27;;;;;;;1.35;0.77;;;21.70;43.80;;;;;;4993654;28;20042;-60
2022/04/27 12:20:55;;;;;;;1.77;1.10;;;21.80;43.90;;;;;;4994493;28;20034;-61
2022/04/27 12:23:29;;;;;;;1.27;0.73;;;21.80;43.80;;;;;;4996452;28;20116;-61
2022/04/27 12:26:00;;;;;;;0.75;0.65;;;21.80;43.80;;;;;;4994533;28;20033;-61
2022/04/27 12:28:32;;;;;;;0.60;0.60;;;21.80;43.80;;;;;;4996230;28;20021;-61
2022/04/27 12:31:06;;;;;;;0.77;0.70;;;21.80;43.80;;;;;;4994569;28;20352;-62
2022/04/27 12:33:36;;;;;;;1.17;0.70;;;21.80;43.80;;;;;;4993823;28;20091;-61
2022/04/27 12:38:58;;;;;;;1.52;0.70;;;21.80;43.70;;;;;;4997595;28;20052;-60
2022/04/27 12:41:44;;;;;;;1.52;0.70;;;21.80;43.70;;;;;;4992910;28;20033;-61
2022/04/27 12:44:19;;;;;;;2.50;0.80;;;21.80;43.70;;;;;;4995494;28;20042;-60
2022/04/27 12:47:07;;;;;;;0.98;0.80;;;21.90;43.80;;;;;;4994274;28;20040;-60
2022/04/27 12:49:34;;;;;;;1.42;0.80;;;21.90;43.80;;;;;;4994439;28;20034;-61
2022/04/27 12:52:36;;;;;;;0.98;0.80;;;21.80;43.70;;;;;;4995902;28;20026;-60
2022/04/27 12:55:09;;;;;;;1.10;0.63;;;21.80;43.70;;;;;;4963019;28;20409;-61
2022/04/27 12:57:47;;;;;;;0.60;0.60;;;21.80;43.70;;;;;;4992126;28;20882;-60
2022/04/27 13:00:14;;;;;;;1.02;0.60;;;21.90;43.70;;;;;;4995654;28;20075;-60
2022/04/27 13:02:40;;;;;;;1.27;0.70;;;21.80;43.70;;;;;;4993563;28;20041;-60
2022/04/27 13:05:08;;;;;;;0.93;0.70;;;21.90;43.70;;;;;;4992224;28;20026;-59
2022/04/27 13:07:34;;;;;;;1.45;0.70;;;21.90;43.70;;;;;;4994580;28;20072;-61
2022/04/27 13:12:44;;;;;;;1.08;0.80;;;21.80;43.60;;;;;;4996251;28;20115;-60
2022/04/27 13:15:11;;;;;;;1.23;0.70;;;21.90;43.70;;;;;;4989548;28;20042;-61